LTS weather

Altus Air Force Base
Altus, Oklahoma, United States

Public forecast

Using degrees Fahrenheit for public forecast. Weather courtesy of forecast.io.

METAR (pilot weather report)

Retrieved 2019/03/22 21:41 UTC (19 minutes ago):

KLTS 222141Z AUTO 13016G21KT 10SM BKN050 BKN120 22/09 A2999 RMK AO2 SLP150 $

TAF (pilot weather forecast)

Retrieved 2019/03/22 17:04 UTC (5 hours ago):

TAF KLTS 221700Z 2217/2323 14012G18KT 9999 SCT100 BKN150 QNH3000INS BECMG 2220/2221 15015G25KT 9999 SCT050 BKN070 620903 510403 QNH2995INS BECMG 2223/2224 16020G30KT 6000 SHRA SCT010 BKN030 OVC070 620804 510003 510403 QNH2987INS TEMPO 2303/2309 22025G40KT 4800 TSRA BKN010CB BECMG 2312/2313 24015KT 9999 NSW SCT005 BKN010 QNH2990INS BECMG 2316/2317 28012G20KT 9999 FEW050 SCT100 BKN200 QNH2992INS TX20/2221Z TN10/2312Z